Time;durP1;ratioP1;P1;durP2;ratioP2;P2;SDS_P1;SDS_P2;PMS_P1;PMS_P2;Temp;Humidity;BMP_temperature;BMP_pressure;BME280_temperature;BME280_humidity;BME280_pressure;Samples;Min_cycle;Max_cycle;Signal;HPM_P1;HPM_P2
2021/07/22 00:01:28;;;;;;;7.37;2.60;;;;;;;17.23;77.10;98990.34;1762153;81;21488;-66
2021/07/22 00:03:55;;;;;;;4.67;2.25;;;;;;;17.19;76.56;98988.89;1762219;81;20969;-66
2021/07/22 00:06:21;;;;;;;2.83;1.70;;;;;;;17.19;76.70;98994.63;1762396;81;20993;-66
2021/07/22 00:08:48;;;;;;;5.87;2.30;;;;;;;17.14;76.94;98993.69;1762149;81;21001;-65
2021/07/22 00:11:14;;;;;;;6.20;2.00;;;;;;;17.11;76.84;98997.86;1762532;81;21746;-65
2021/07/22 00:13:42;;;;;;;9.28;2.60;;;;;;;17.09;76.93;98998.45;1762134;81;20981;-65
2021/07/22 00:16:14;;;;;;;2.17;1.80;;;;;;;17.06;76.86;99002.61;1762063;81;21492;-65
2021/07/22 00:18:41;;;;;;;2.98;1.92;;;;;;;17.04;77.18;99003.20;1762453;81;20968;-65
2021/07/22 00:21:09;;;;;;;3.65;2.10;;;;;;;17.01;77.33;99010.00;1762236;81;21045;-65
2021/07/22 00:23:35;;;;;;;5.90;2.17;;;;;;;16.95;77.46;98997.34;1762117;81;23244;-65
2021/07/22 00:26:05;;;;;;;4.12;2.40;;;;;;;16.91;77.62;99001.62;1761995;81;20945;-66
2021/07/22 00:28:32;;;;;;;5.58;2.17;;;;;;;16.85;78.05;99001.12;1762090;81;20972;-66
2021/07/22 00:30:59;;;;;;;4.62;1.70;;;;;;;16.80;78.33;99001.93;1762260;81;20952;-66
2021/07/22 00:33:25;;;;;;;4.60;1.77;;;;;;;16.76;78.63;99001.82;1762216;81;21567;-66
2021/07/22 00:35:53;;;;;;;4.62;2.45;;;;;;;16.72;78.83;99008.24;1762197;81;21137;-66
2021/07/22 00:38:19;;;;;;;8.10;2.37;;;;;;;16.69;79.12;99011.56;1762049;81;21516;-66
2021/07/22 00:40:47;;;;;;;6.62;2.10;;;;;;;16.63;79.20;99002.34;1762193;81;20976;-66
2021/07/22 00:43:14;;;;;;;11.95;2.70;;;;;;;16.60;79.50;99006.94;1762087;81;21001;-66
2021/07/22 00:45:42;;;;;;;4.12;2.40;;;;;;;16.56;79.67;99008.98;1762554;81;20941;-67
2021/07/22 00:48:08;;;;;;;3.30;2.25;;;;;;;16.52;79.82;99009.67;1762206;81;21123;-66
2021/07/22 00:50:35;;;;;;;4.15;2.30;;;;;;;16.49;79.81;99006.43;1762343;81;20909;-66
2021/07/22 00:53:04;;;;;;;2.52;1.90;;;;;;;16.44;79.73;99006.76;1762085;81;20957;-67
2021/07/22 00:55:31;;;;;;;6.47;2.35;;;;;;;16.40;79.96;99005.77;1762031;81;20945;-66
2021/07/22 00:57:58;;;;;;;4.33;2.50;;;;;;;16.36;80.24;99010.43;1762121;81;20988;-66
2021/07/22 01:00:25;;;;;;;6.62;2.20;;;;;;;16.33;80.48;99008.50;1762106;81;21393;-66
2021/07/22 01:02:52;;;;;;;4.65;2.15;;;;;;;16.28;80.53;99000.95;1762025;81;20985;-66
2021/07/22 01:05:19;;;;;;;4.22;2.00;;;;;;;16.25;80.56;99011.66;1762450;81;21465;-66
2021/07/22 01:07:46;;;;;;;2.87;2.10;;;;;;;16.21;80.82;99007.58;1735381;81;21019;-66
2021/07/22 01:10:14;;;;;;;6.87;2.72;;;;;;;16.17;81.05;99017.48;1762202;81;21095;-66
2021/07/22 01:12:41;;;;;;;3.60;2.12;;;;;;;16.12;81.33;99013.50;1762070;81;21402;-67
2021/07/22 01:15:10;;;;;;;5.40;2.50;;;;;;;16.06;81.57;99012.14;1762087;81;21032;-66
2021/07/22 01:17:50;;;;;;;5.58;2.62;;;;;;;15.95;82.17;99010.77;1762162;81;20976;-66
2021/07/22 01:20:19;;;;;;;6.28;2.50;;;;;;;15.95;82.17;99010.77;1762105;81;21028;-66
2021/07/22 01:22:48;;;;;;;4.78;2.47;;;;;;;15.92;82.37;99018.84;1762117;81;21603;-66
2021/07/22 01:25:15;;;;;;;7.10;2.58;;;;;;;15.90;82.72;99015.96;1762078;81;21167;-65
2021/07/22 01:27:42;;;;;;;6.20;2.60;;;;;;;15.87;83.05;99013.55;1760431;81;20933;-65
2021/07/22 01:30:11;;;;;;;5.35;2.65;;;;;;;15.84;83.37;99018.06;1759183;81;21504;-65
2021/07/22 01:32:40;;;;;;;3.87;2.10;;;;;;;15.82;83.61;99017.80;1759062;81;20981;-65
2021/07/22 01:35:08;;;;;;;6.00;2.47;;;;;;;15.81;83.69;99024.83;1759265;81;21091;-65
2021/07/22 01:37:38;;;;;;;4.33;2.58;;;;;;;15.79;83.90;99037.67;1759553;81;21120;-65
2021/07/22 01:40:09;;;;;;;5.92;2.50;;;;;;;15.76;84.07;99026.95;1758972;81;21036;-66
2021/07/22 01:42:35;;;;;;;5.40;2.65;;;;;;;15.74;84.35;99032.77;1759381;81;20996;-65
2021/07/22 01:45:07;;;;;;;3.47;2.17;;;;;;;15.72;84.64;99035.97;1759099;81;21005;-65
2021/07/22 01:47:39;;;;;;;8.00;2.72;;;;;;;15.73;84.39;99034.19;1758531;81;20984;-65
2021/07/22 01:50:07;;;;;;;4.75;2.70;;;;;;;15.73;84.47;99038.96;1759221;81;21130;-65
2021/07/22 01:52:34;;;;;;;6.10;2.47;;;;;;;15.71;84.41;99040.84;1759297;81;20926;-65
2021/07/22 01:55:01;;;;;;;5.95;2.50;;;;;;;15.72;84.45;99041.22;1759362;81;21402;-65
2021/07/22 01:57:29;;;;;;;4.53;2.35;;;;;;;15.74;84.23;99038.48;1759065;81;21513;-65
2021/07/22 02:00:04;;;;;;;3.10;2.80;;;;;;;15.72;84.26;99037.75;1759146;81;21044;-65
2021/07/22 02:02:25;;;;;;;5.28;3.00;;;;;;;15.73;84.36;99045.98;1758307;81;21216;-65
2021/07/22 02:04:53;;;;;;;4.62;2.75;;;;;;;15.72;84.15;99053.48;1759159;81;21662;-65
2021/07/22 02:07:20;;;;;;;4.00;2.50;;;;;;;15.72;84.04;99047.77;1759087;81;21047;-65
2021/07/22 02:09:48;;;;;;;3.65;2.40;;;;;;;15.72;84.24;99052.17;1758251;81;20968;-66
2021/07/22 02:12:16;;;;;;;5.78;2.65;;;;;;;15.71;84.39;99049.19;1740908;81;21043;-65
2021/07/22 02:14:43;;;;;;;7.47;2.70;;;;;;;15.68;84.44;99051.54;1759056;81;21081;-65
2021/07/22 02:17:12;;;;;;;8.30;3.15;;;;;;;15.66;84.69;99053.42;1740712;81;20942;-65
2021/07/22 02:19:39;;;;;;;6.17;2.87;;;;;;;15.66;84.56;99059.98;1759304;81;20964;-66
2021/07/22 02:22:07;;;;;;;6.87;3.02;;;;;;;15.64;84.86;99057.94;1759239;81;21456;-65
2021/07/22 02:24:36;;;;;;;6.55;2.40;;;;;;;15.63;85.04;99064.12;1759215;81;21507;-65
2021/07/22 02:27:10;;;;;;;3.87;2.72;;;;;;;15.62;85.00;99059.81;1757620;81;21188;-65
2021/07/22 02:29:36;;;;;;;5.45;2.37;;;;;;;15.64;85.22;99059.25;1759139;81;21523;-65
2021/07/22 02:32:05;;;;;;;5.10;2.98;;;;;;;15.67;85.31;99069.52;1759271;81;21416;-65
2021/07/22 02:34:32;;;;;;;4.35;2.90;;;;;;;15.74;85.34;99075.20;1759173;81;20961;-65
2021/07/22 02:37:03;;;;;;;3.75;2.95;;;;;;;15.74;85.34;99075.20;1758825;81;20997;-65
2021/07/22 02:39:38;;;;;;;5.47;2.80;;;;;;;15.84;84.80;99070.98;1756438;81;21136;-67
2021/07/22 02:42:03;;;;;;;8.43;2.72;;;;;;;15.95;84.21;99069.78;1758776;81;21065;-65
2021/07/22 02:44:36;;;;;;;6.53;2.98;;;;;;;16.08;83.59;99067.12;1759224;81;20957;-65
2021/07/22 02:47:01;;;;;;;5.65;2.90;;;;;;;16.19;83.16;99070.66;1757885;81;20949;-65
2021/07/22 02:49:32;;;;;;;8.63;2.95;;;;;;;16.33;82.48;99067.55;1759235;81;21486;-65
2021/07/22 02:51:59;;;;;;;5.12;2.75;;;;;;;16.49;82.44;99077.30;1759475;81;21492;-65
2021/07/22 02:54:26;;;;;;;10.50;2.90;;;;;;;16.67;82.06;99086.52;1740629;81;21020;-65
2021/07/22 02:56:53;;;;;;;6.12;2.45;;;;;;;16.85;81.12;99093.05;1759500;81;21405;-65
2021/07/22 02:59:21;;;;;;;4.08;2.60;;;;;;;17.03;80.03;99085.59;1758999;81;21418;-65
2021/07/22 03:01:48;;;;;;;7.90;2.92;;;;;;;17.21;79.18;99080.77;1759448;81;21496;-65
2021/07/22 03:04:17;;;;;;;4.42;2.72;;;;;;;17.41;78.31;99087.16;1759213;81;21978;-65
2021/07/22 03:06:47;;;;;;;4.25;2.90;;;;;;;17.62;77.52;99086.84;1758833;81;21020;-65
2021/07/22 03:09:14;;;;;;;4.25;2.27;;;;;;;17.86;76.33;99082.84;1759378;81;20989;-65
2021/07/22 03:11:42;;;;;;;5.85;2.87;;;;;;;18.09;75.32;99090.27;1759309;81;21480;-65
2021/07/22 03:14:09;;;;;;;5.83;2.58;;;;;;;18.29;74.00;99088.70;1759233;81;21524;-65
2021/07/22 03:16:39;;;;;;;6.22;2.87;;;;;;;18.44;72.85;99090.10;1759185;81;39092;-65
2021/07/22 03:19:15;;;;;;;5.50;3.37;;;;;;;18.63;72.10;99094.77;1759457;81;21413;-65
2021/07/22 03:22:01;;;;;;;3.70;2.67;;;;;;;18.84;70.93;99096.98;1759543;81;21409;-65
2021/07/22 03:24:39;;;;;;;4.95;2.87;;;;;;;18.98;70.47;99095.40;1757267;81;21513;-65
2021/07/22 03:27:07;;;;;;;5.05;2.85;;;;;;;19.17;69.42;99102.63;1759308;81;20996;-65
2021/07/22 03:29:33;;;;;;;4.03;2.65;;;;;;;19.30;68.65;99098.48;1762315;81;23343;-66
2021/07/22 03:32:00;;;;;;;3.92;2.62;;;;;;;19.42;68.25;99105.36;1762543;81;21024;-65
2021/07/22 03:34:30;;;;;;;5.67;2.95;;;;;;;19.62;67.54;99099.28;1762063;81;21000;-66
2021/07/22 03:37:03;;;;;;;6.10;2.72;;;;;;;19.83;66.24;99098.78;1761715;81;20961;-65
2021/07/22 03:39:30;;;;;;;5.83;3.00;;;;;;;20.04;65.39;99101.38;1762221;81;21027;-65
2021/07/22 03:41:58;;;;;;;3.15;2.67;;;;;;;20.21;64.62;99101.23;1761556;81;21469;-65
2021/07/22 03:44:37;;;;;;;6.55;3.02;;;;;;;20.39;63.56;99102.78;1762319;81;21559;-65
2021/07/22 03:47:06;;;;;;;5.15;2.98;;;;;;;20.49;63.37;99103.66;1762165;81;20965;-66
2021/07/22 03:49:34;;;;;;;4.75;2.45;;;;;;;20.65;62.17;99109.27;1762134;81;20985;-66
2021/07/22 03:52:03;;;;;;;4.22;2.65;;;;;;;20.81;61.60;99105.59;1762188;81;20917;-66
2021/07/22 03:54:32;;;;;;;7.65;2.58;;;;;;;20.97;61.20;99109.05;1761255;80;21306;-66
2021/07/22 03:57:00;;;;;;;4.87;2.65;;;;;;;21.17;60.69;99114.70;1762142;81;21135;-66
2021/07/22 03:59:27;;;;;;;4.60;2.55;;;;;;;21.34;59.23;99105.25;1762238;81;21019;-66
2021/07/22 04:01:55;;;;;;;8.13;3.33;;;;;;;21.47;59.42;99112.40;1762028;81;21000;-67
2021/07/22 04:04:24;;;;;;;5.62;3.27;;;;;;;21.62;58.72;99122.88;1762386;81;20933;-67
2021/07/22 04:06:54;;;;;;;3.90;2.55;;;;;;;21.80;58.20;99125.63;1761995;81;20965;-66
2021/07/22 04:09:22;;;;;;;7.47;2.87;;;;;;;22.00;56.95;99123.31;1729081;81;20969;-66
2021/07/22 04:11:50;;;;;;;4.20;2.77;;;;;;;22.09;56.42;99125.59;1761573;81;20996;-66
2021/07/22 04:14:27;;;;;;;5.97;2.77;;;;;;;22.17;56.11;99126.20;1744112;81;21036;-66
2021/07/22 04:16:55;;;;;;;4.40;2.42;;;;;;;22.26;55.50;99127.97;1759191;81;20972;-66
2021/07/22 04:19:24;;;;;;;5.67;3.02;;;;;;;22.31;55.37;99124.39;1758159;81;21097;-66
2021/07/22 04:21:55;;;;;;;8.53;3.42;;;;;;;22.34;55.07;99128.91;1759413;81;21563;-66
2021/07/22 04:24:32;;;;;;;3.42;2.83;;;;;;;22.37;55.06;99126.47;1760140;81;20953;-66
2021/07/22 04:27:01;;;;;;;7.92;3.17;;;;;;;22.47;54.96;99129.89;1761403;81;21192;-66
2021/07/22 04:29:46;;;;;;;4.78;2.55;;;;;;;22.65;54.10;99122.81;1762112;81;21012;-66
2021/07/22 04:32:13;;;;;;;3.58;2.75;;;;;;;22.78;53.82;99130.43;1762070;81;21117;-66
2021/07/22 04:34:41;;;;;;;5.55;2.85;;;;;;;22.86;52.88;99129.70;1760747;80;20913;-66
2021/07/22 04:37:28;;;;;;;7.62;2.70;;;;;;;22.92;53.04;99131.27;1760275;81;20985;-66
2021/07/22 04:40:15;;;;;;;4.90;2.65;;;;;;;23.06;52.32;99129.91;1760165;81;20984;-66
2021/07/22 04:43:01;;;;;;;4.33;2.83;;;;;;;23.17;51.82;99138.98;1761290;81;20996;-67
2021/07/22 04:45:29;;;;;;;4.40;2.87;;;;;;;23.20;51.93;99137.81;1757355;81;21138;-67
2021/07/22 04:48:11;;;;;;;7.45;2.77;;;;;;;23.29;52.47;99133.77;1760054;81;21111;-66
2021/07/22 04:50:57;;;;;;;3.33;2.52;;;;;;;23.49;51.74;99129.63;1761093;81;21000;-66
2021/07/22 04:53:25;;;;;;;5.30;2.80;;;;;;;23.65;51.12;99123.14;1745639;81;21036;-67
2021/07/22 04:55:55;;;;;;;11.28;3.85;;;;;;;23.78;50.47;99124.87;1761407;81;21036;-67
2021/07/22 04:58:22;;;;;;;3.85;2.85;;;;;;;23.87;50.41;99130.59;1762022;81;21037;-70
2021/07/22 05:00:50;;;;;;;7.92;3.20;;;;;;;24.00;50.25;99140.80;1762124;81;21489;-66
2021/07/22 05:03:17;;;;;;;10.98;3.37;;;;;;;24.16;49.88;99132.11;1762018;81;21023;-67
2021/07/22 05:05:44;;;;;;;10.98;3.08;;;;;;;24.29;49.57;99139.17;1762300;81;21048;-67
2021/07/22 05:08:18;;;;;;;9.88;2.83;;;;;;;24.35;49.07;99139.87;1759850;81;20991;-67
2021/07/22 05:11:07;;;;;;;7.15;3.42;;;;;;;24.35;48.44;99150.02;1731823;82;21509;-66
2021/07/22 05:13:45;;;;;;;6.15;2.58;;;;;;;24.29;48.63;99148.47;1739918;81;21409;-70
2021/07/22 05:16:14;;;;;;;8.50;2.52;;;;;;;24.31;48.41;99155.30;1759680;80;21024;-67
2021/07/22 05:18:55;;;;;;;3.22;2.90;;;;;;;24.26;47.76;99156.27;1760203;81;21445;-68
2021/07/22 05:21:23;;;;;;;2.50;2.30;;;;;;;24.09;48.55;99157.63;1760117;81;20983;-67
2021/07/22 05:23:54;;;;;;;9.53;3.20;;;;;;;24.07;48.30;99149.81;1756272;81;21087;-66
2021/07/22 05:26:38;;;;;;;5.90;2.37;;;;;;;24.07;48.55;99152.47;1760364;81;21071;-65
2021/07/22 05:29:22;;;;;;;5.45;2.67;;;;;;;24.05;48.52;99145.14;1759779;81;21433;-66
2021/07/22 05:31:50;;;;;;;6.08;2.72;;;;;;;24.13;48.71;99155.84;1746850;81;21036;-68
2021/07/22 05:34:19;;;;;;;3.52;2.40;;;;;;;24.16;47.52;99156.85;1755720;81;21040;-66
2021/07/22 05:36:48;;;;;;;5.47;2.50;;;;;;;24.06;48.11;99166.74;1760810;81;21077;-67
2021/07/22 05:39:22;;;;;;;7.15;2.75;;;;;;;24.00;47.31;99174.83;1760207;81;21425;-67
2021/07/22 05:41:48;;;;;;;4.72;2.40;;;;;;;23.90;47.50;99155.52;1761984;81;21495;-67
2021/07/22 05:44:15;;;;;;;5.42;2.62;;;;;;;23.81;47.59;99157.77;1761913;81;20979;-67
2021/07/22 05:46:41;;;;;;;7.58;2.62;;;;;;;23.80;47.47;99156.09;1758201;81;21037;-68
2021/07/22 05:49:10;;;;;;;7.10;2.60;;;;;;;23.78;47.52;99159.41;1750727;81;21133;-65
2021/07/22 05:51:37;;;;;;;9.15;2.22;;;;;;;23.67;47.56;99162.31;1746736;81;21145;-67
2021/07/22 05:54:03;;;;;;;3.67;2.42;;;;;;;23.62;47.04;99164.09;1743557;82;20991;-67
2021/07/22 05:56:30;;;;;;;5.53;2.37;;;;;;;23.55;47.80;99166.22;1752526;81;21484;-66
2021/07/22 05:58:56;;;;;;;10.50;2.60;;;;;;;23.47;48.02;99158.97;1761901;81;21117;-68
2021/07/22 06:01:23;;;;;;;5.30;2.10;;;;;;;23.36;48.18;99173.81;1762047;81;21124;-68
2021/07/22 06:03:51;;;;;;;3.47;2.00;;;;;;;23.25;48.73;99168.23;1761957;81;20933;-66
2021/07/22 06:06:18;;;;;;;3.50;1.82;;;;;;;23.21;48.30;99176.63;1762149;81;20945;-67
2021/07/22 06:08:45;;;;;;;8.05;2.75;;;;;;;23.03;47.65;99190.72;1762113;81;21443;-68
2021/07/22 06:11:12;;;;;;;5.03;1.80;;;;;;;22.87;48.95;99171.14;1762134;81;20952;-67
2021/07/22 06:13:40;;;;;;;5.55;2.35;;;;;;;22.81;49.37;99172.56;1762036;81;21155;-68
2021/07/22 06:16:13;;;;;;;8.43;1.92;;;;;;;22.73;49.41;99171.62;1736332;81;21475;-68
2021/07/22 06:18:42;;;;;;;4.03;1.60;;;;;;;22.69;48.95;99169.26;1762034;81;21066;-68
2021/07/22 06:21:14;;;;;;;4.70;1.80;;;;;;;22.68;48.76;99169.41;1762114;81;21016;-67
2021/07/22 06:23:41;;;;;;;6.62;1.80;;;;;;;22.76;48.61;99164.70;1762152;81;21525;-67
2021/07/22 06:26:07;;;;;;;4.87;1.77;;;;;;;22.73;48.76;99179.57;1761985;81;21825;-67
2021/07/22 06:28:34;;;;;;;5.40;2.08;;;;;;;22.76;48.25;99157.58;1761747;81;21067;-67
2021/07/22 06:31:00;;;;;;;5.78;3.47;;;;;;;22.82;48.37;99160.97;1761928;81;20988;-67
2021/07/22 06:33:26;;;;;;;3.65;2.02;;;;;;;22.92;48.87;99161.77;1762224;81;21059;-66
2021/07/22 06:35:54;;;;;;;3.67;1.65;;;;;;;23.12;48.77;99169.10;1762234;81;20937;-67
2021/07/22 06:38:21;;;;;;;4.00;1.85;;;;;;;23.23;47.99;99160.91;1762127;81;21177;-68
2021/07/22 06:40:49;;;;;;;2.58;1.20;;;;;;;23.20;47.78;99164.34;1761938;81;20992;-68
2021/07/22 06:43:17;;;;;;;1.70;1.60;;;;;;;23.07;47.47;99172.69;1762274;81;21048;-66
2021/07/22 06:45:44;;;;;;;4.80;1.70;;;;;;;22.93;48.02;99171.39;1762374;81;21059;-66
2021/07/22 06:48:11;;;;;;;2.87;1.60;;;;;;;22.78;47.81;99178.67;1761815;81;21019;-66
2021/07/22 06:50:39;;;;;;;2.67;1.50;;;;;;;22.54;48.75;99168.09;1761887;81;21116;-66
2021/07/22 06:53:05;;;;;;;10.45;2.22;;;;;;;22.39;49.13;99175.31;1743835;81;20944;-65
2021/07/22 06:55:32;;;;;;;2.80;1.62;;;;;;;22.37;50.28;99165.38;1714154;83;21419;-66
2021/07/22 06:58:05;;;;;;;1.85;1.50;;;;;;;22.38;48.74;99163.08;1733507;81;21504;-64
2021/07/22 07:00:32;;;;;;;;;;;;;;;22.30;47.76;99169.92;1764012;81;20955;-65
2021/07/22 07:03:04;;;;;;;7.40;1.50;;;;;;;22.20;47.59;99158.52;1762083;81;21105;-66
2021/07/22 07:05:32;;;;;;;7.62;1.32;;;;;;;22.12;48.34;99157.09;1761525;80;21012;-66
2021/07/22 07:08:00;;;;;;;3.55;1.42;;;;;;;22.06;47.39;99158.98;1731663;82;21473;-66
2021/07/22 07:10:26;;;;;;;2.50;1.30;;;;;;;21.99;48.08;99173.24;1747442;81;20992;-64
2021/07/22 07:12:54;;;;;;;2.92;1.70;;;;;;;21.97;47.95;99172.58;1762176;81;20937;-65
2021/07/22 07:15:22;;;;;;;3.17;1.40;;;;;;;22.01;49.55;99181.08;1762097;81;21504;-65
2021/07/22 07:17:49;;;;;;;6.95;2.05;;;;;;;22.09;50.32;99174.59;1761941;81;21678;-66
2021/07/22 07:20:17;;;;;;;4.70;1.37;;;;;;;22.19;49.67;99175.38;1763509;81;20950;-66
2021/07/22 07:22:44;;;;;;;8.88;3.15;;;;;;;22.26;49.33;99163.23;1763592;81;20969;-65
2021/07/22 07:25:12;;;;;;;2.65;1.40;;;;;;;22.31;48.78;99168.95;1766054;80;21570;-66
2021/07/22 07:27:40;;;;;;;5.08;1.45;;;;;;;22.29;48.23;99173.55;1771031;80;21476;-66
2021/07/22 07:30:08;;;;;;;2.67;1.72;;;;;;;22.20;48.33;99167.78;1740438;81;20989;-67
2021/07/22 07:32:35;;;;;;;7.75;1.62;;;;;;;22.08;48.94;99170.27;1757653;81;20953;-64
2021/07/22 07:35:02;;;;;;;4.95;1.52;;;;;;;21.98;49.96;99166.27;1747292;81;21130;-66
2021/07/22 07:37:29;;;;;;;4.97;1.50;;;;;;;21.98;50.33;99177.39;1753330;81;21005;-66
2021/07/22 07:39:57;;;;;;;3.20;1.45;;;;;;;21.98;47.57;99166.80;1728374;83;21091;-66
2021/07/22 07:42:24;;;;;;;3.37;1.47;;;;;;;21.95;47.46;99170.56;1728718;83;20948;-65
2021/07/22 07:44:52;;;;;;;2.60;1.20;;;;;;;21.95;47.44;99186.94;1728013;83;21087;-68
2021/07/22 07:47:18;;;;;;;4.00;1.32;;;;;;;21.92;47.06;99168.20;1747918;81;21107;-66
2021/07/22 07:49:47;;;;;;;1.90;1.10;;;;;;;21.89;47.10;99167.64;1754252;81;21063;-67
2021/07/22 07:52:15;;;;;;;3.10;1.57;;;;;;;21.85;46.96;99178.16;1757576;81;21105;-66
2021/07/22 07:54:48;;;;;;;8.03;2.00;;;;;;;21.83;47.90;99170.36;1748140;81;21017;-66
2021/07/22 07:57:15;;;;;;;4.45;1.50;;;;;;;21.87;48.54;99182.83;1726175;81;21006;-65
2021/07/22 07:59:43;;;;;;;6.42;2.10;;;;;;;21.94;47.12;99182.62;1747426;81;21018;-66
2021/07/22 08:02:09;;;;;;;2.22;1.40;;;;;;;21.93;47.05;99175.16;1757078;81;21516;-64
2021/07/22 08:04:36;;;;;;;4.78;1.40;;;;;;;21.96;47.02;99179.34;1756251;81;23319;-65
2021/07/22 08:07:03;;;;;;;5.53;1.45;;;;;;;21.97;47.54;99181.02;1745778;82;21093;-66
2021/07/22 08:09:29;;;;;;;4.42;1.37;;;;;;;22.01;46.62;99182.41;1746161;81;21069;-66
2021/07/22 08:11:55;;;;;;;2.35;1.10;;;;;;;22.06;46.27;99178.01;1745802;82;21510;-66
2021/07/22 08:14:22;;;;;;;4.95;1.50;;;;;;;22.08;46.21;99178.70;1753502;81;20926;-66
2021/07/22 08:16:50;;;;;;;3.33;1.20;;;;;;;22.08;45.98;99184.84;1761879;81;21032;-65
2021/07/22 08:19:16;;;;;;;4.70;1.60;;;;;;;22.06;45.66;99180.17;1759091;81;21440;-65
2021/07/22 08:21:43;;;;;;;7.85;1.55;;;;;;;22.08;45.96;99181.35;1758811;81;20956;-66
2021/07/22 08:24:09;;;;;;;3.77;1.40;;;;;;;22.09;45.55;99178.56;1759179;81;20989;-66
2021/07/22 08:26:35;;;;;;;3.47;1.40;;;;;;;22.08;46.78;99176.89;1758177;81;20972;-66
2021/07/22 08:29:02;;;;;;;5.47;1.95;;;;;;;22.10;46.23;99174.94;1750088;81;21880;-65
2021/07/22 08:31:30;;;;;;;6.67;1.55;;;;;;;22.15;47.53;99170.05;1686112;83;21028;-65
2021/07/22 08:33:56;;;;;;;4.15;1.37;;;;;;;22.26;47.64;99166.38;1685197;85;21010;-66
2021/07/22 08:36:25;;;;;;;3.75;1.47;;;;;;;22.36;46.45;99171.66;1685268;84;20922;-65
2021/07/22 08:38:52;;;;;;;6.47;1.72;;;;;;;22.40;46.24;99178.31;1689050;83;21510;-66
2021/07/22 08:41:19;;;;;;;5.55;1.52;;;;;;;22.41;46.35;99176.00;1687248;83;21946;-66
2021/07/22 08:43:48;;;;;;;5.90;2.25;;;;;;;22.45;47.53;99178.71;1698495;82;20962;-66
2021/07/22 08:46:15;;;;;;;3.55;1.65;;;;;;;22.53;48.26;99170.87;1707268;83;20998;-66
2021/07/22 08:48:41;;;;;;;5.17;1.60;;;;;;;22.65;47.11;99194.88;1691198;82;21995;-66
2021/07/22 08:51:08;;;;;;;4.58;1.52;;;;;;;22.64;45.57;99184.77;1743262;82;21544;-68
2021/07/22 08:53:35;;;;;;;6.90;1.70;;;;;;;22.58;45.62;99177.91;1743996;82;21124;-66
2021/07/22 08:56:07;;;;;;;3.65;1.80;;;;;;;22.59;47.16;99178.22;1743997;82;20989;-64
2021/07/22 08:58:38;;;;;;;9.88;2.52;;;;;;;22.71;47.30;99181.05;1741906;82;21438;-66
2021/07/22 09:01:05;;;;;;;3.27;1.70;;;;;;;22.78;46.04;99177.35;1712116;83;21080;-64
2021/07/22 09:03:31;;;;;;;7.67;1.70;;;;;;;22.88;46.17;99182.93;1712870;83;21620;-65
2021/07/22 09:05:58;;;;;;;6.22;1.62;;;;;;;22.95;46.70;99176.55;1713181;83;23296;-66
2021/07/22 09:08:24;;;;;;;6.15;1.70;;;;;;;23.02;45.24;99178.92;1713524;83;20998;-66
2021/07/22 09:11:09;;;;;;;5.60;1.50;;;;;;;23.03;45.22;99184.08;1713678;83;21053;-66
2021/07/22 09:13:37;;;;;;;4.15;1.50;;;;;;;23.03;45.02;99184.58;1712823;83;21536;-65
2021/07/22 09:16:08;;;;;;;3.15;1.80;;;;;;;23.02;45.60;99191.70;1713897;83;21018;-66
2021/07/22 09:18:36;;;;;;;4.92;1.65;;;;;;;23.02;45.85;99178.92;1687955;83;21083;-67
2021/07/22 09:21:21;;;;;;;4.05;1.30;;;;;;;23.07;45.69;99191.25;1713827;83;21002;-66
2021/07/22 09:24:10;;;;;;;2.92;2.62;;;;;;;23.13;45.49;99177.41;1713859;83;21057;-65
2021/07/22 09:26:40;;;;;;;3.05;2.72;;;;;;;23.27;44.86;99189.30;1714117;83;20970;-66
2021/07/22 09:29:10;;;;;;;5.65;1.92;;;;;;;23.38;45.57;99186.45;1717007;80;21045;-66
2021/07/22 09:31:37;;;;;;;3.27;1.50;;;;;;;23.52;45.30;99182.44;1761930;81;21110;-66
2021/07/22 09:34:04;;;;;;;4.47;1.87;;;;;;;23.59;43.63;99193.61;1761976;81;20933;-65
2021/07/22 09:36:32;;;;;;;2.77;1.40;;;;;;;23.66;43.84;99179.23;1762028;81;21095;-65
2021/07/22 09:39:25;;;;;;;4.37;1.87;;;;;;;23.75;44.20;99187.62;1762343;81;21004;-65
2021/07/22 09:42:01;;;;;;;7.12;1.87;;;;;;;23.79;44.25;99175.67;1762304;81;20993;-65
2021/07/22 09:44:36;;;;;;;1.60;1.27;;;;;;;23.91;43.74;99173.13;1761999;81;23244;-67
2021/07/22 09:47:08;;;;;;;3.02;1.35;;;;;;;23.99;43.17;99177.64;1762072;81;21521;-65
2021/07/22 09:49:40;;;;;;;2.92;1.50;;;;;;;24.10;43.59;99175.23;1762404;81;21012;-66
2021/07/22 09:52:21;;;;;;;1.80;1.43;;;;;;;24.23;42.33;99181.79;1762310;81;21000;-66
2021/07/22 09:54:48;;;;;;;5.47;1.55;;;;;;;24.35;42.01;99183.23;1762113;81;21075;-66
2021/07/22 09:57:20;;;;;;;3.87;1.42;;;;;;;24.33;42.36;99170.59;1761996;81;21943;-66
2021/07/22 09:59:48;;;;;;;4.33;1.80;;;;;;;24.30;42.60;99176.23;1761374;81;20984;-66
2021/07/22 10:02:24;;;;;;;8.18;1.60;;;;;;;24.28;42.95;99182.69;1762014;81;21008;-66
2021/07/22 10:05:04;;;;;;;2.33;1.52;;;;;;;24.32;42.63;99173.41;1761965;81;21554;-66
2021/07/22 10:07:31;;;;;;;3.25;1.40;;;;;;;24.41;42.37;99165.80;1772144;80;20994;-66
2021/07/22 10:09:58;;;;;;;8.53;1.70;;;;;;;24.41;42.34;99171.11;1779009;80;21283;-66
2021/07/22 10:12:25;;;;;;;4.33;1.55;;;;;;;24.30;42.69;99164.27;1779828;80;20979;-65
2021/07/22 10:14:55;;;;;;;3.33;1.90;;;;;;;24.33;42.31;99164.45;1780173;80;20963;-65
2021/07/22 10:17:27;;;;;;;4.58;1.85;;;;;;;24.42;42.09;99170.13;1779907;80;21383;-66
2021/07/22 10:19:57;;;;;;;3.37;1.65;;;;;;;24.46;42.21;99162.17;1780153;80;20939;-67
2021/07/22 10:22:25;;;;;;;5.37;1.47;;;;;;;24.50;42.70;99164.86;1779870;80;21109;-66
2021/07/22 10:24:54;;;;;;;4.30;1.52;;;;;;;24.34;42.98;99165.63;1780341;80;20943;-66
2021/07/22 10:27:21;;;;;;;4.35;1.50;;;;;;;24.13;44.22;99163.81;1780263;80;21015;-66
2021/07/22 10:29:48;;;;;;;3.70;1.87;;;;;;;24.05;43.20;99171.22;1780163;80;21030;-66
2021/07/22 10:32:18;;;;;;;3.90;1.65;;;;;;;24.10;42.90;99171.25;1780989;80;20935;-65
2021/07/22 10:34:49;;;;;;;3.27;1.72;;;;;;;24.21;42.76;99170.97;1780358;80;21132;-66
2021/07/22 10:37:18;;;;;;;1.70;1.42;;;;;;;24.45;43.25;99172.47;1780858;80;21411;-65
2021/07/22 10:40:06;;;;;;;2.58;1.67;;;;;;;24.68;42.72;99167.42;1781110;80;20986;-66
2021/07/22 10:42:44;;;;;;;2.72;1.47;;;;;;;24.81;41.75;99173.61;1780783;80;20978;-65
2021/07/22 10:45:24;;;;;;;4.67;1.77;;;;;;;24.87;42.13;99173.80;1781175;80;20990;-66
2021/07/22 10:48:06;;;;;;;2.85;1.90;;;;;;;24.87;41.85;99177.79;1780843;80;20966;-67
2021/07/22 10:50:56;;;;;;;4.87;1.60;;;;;;;24.70;41.33;99178.23;1780855;80;20955;-66
2021/07/22 10:53:40;;;;;;;2.90;1.67;;;;;;;24.55;42.25;99178.52;1780716;80;21364;-66
2021/07/22 10:56:12;;;;;;;3.27;2.05;;;;;;;24.51;42.49;99175.00;1780805;80;20939;-66
2021/07/22 10:58:46;;;;;;;5.78;1.75;;;;;;;24.41;43.48;99183.57;1780734;80;20994;-67
2021/07/22 11:01:12;;;;;;;4.07;1.60;;;;;;;24.34;44.36;99178.08;1781149;80;21255;-65
2021/07/22 11:03:47;;;;;;;4.17;2.00;;;;;;;24.43;43.67;99169.13;1780766;80;20986;-65
2021/07/22 11:06:15;;;;;;;4.62;1.80;;;;;;;24.51;43.91;99173.17;1780999;80;20963;-66
2021/07/22 11:08:43;;;;;;;6.80;1.85;;;;;;;24.59;44.03;99160.39;1780928;80;22196;-68
2021/07/22 11:11:13;;;;;;;2.17;1.57;;;;;;;24.52;44.46;99176.17;1780980;80;21505;-65
2021/07/22 11:13:44;;;;;;;4.83;1.90;;;;;;;24.34;44.66;99169.61;1781185;80;21731;-66
2021/07/22 11:16:31;;;;;;;3.83;1.62;;;;;;;24.20;44.22;99175.45;1767606;80;21038;-66
2021/07/22 11:19:09;;;;;;;6.58;4.12;;;;;;;24.21;43.41;99171.80;1781035;80;21054;-66
2021/07/22 11:21:36;;;;;;;7.40;3.37;;;;;;;24.34;44.54;99175.42;1780529;80;21059;-67
2021/07/22 11:24:06;;;;;;;2.20;1.90;;;;;;;24.41;43.62;99171.11;1781030;80;20975;-66
2021/07/22 11:26:37;;;;;;;4.62;1.98;;;;;;;24.40;43.09;99178.75;1781199;80;21126;-66
2021/07/22 11:29:05;;;;;;;3.70;1.65;;;;;;;24.33;43.81;99177.24;1781212;80;21483;-66
2021/07/22 11:31:41;;;;;;;2.15;1.60;;;;;;;24.21;42.54;99176.29;1780528;79;20969;-66
2021/07/22 11:34:07;;;;;;;2.30;1.50;;;;;;;24.05;43.06;99172.55;1780388;80;21021;-65
2021/07/22 11:36:35;;;;;;;5.17;1.57;;;;;;;24.01;42.51;99174.34;1780529;80;21031;-68
2021/07/22 11:39:03;;;;;;;2.87;1.75;;;;;;;24.03;42.79;99171.87;1780335;80;21107;-66
2021/07/22 11:41:29;;;;;;;3.25;2.05;;;;;;;24.10;43.42;99169.43;1780266;80;20977;-66
2021/07/22 11:43:59;;;;;;;3.50;1.95;;;;;;;24.21;43.59;99171.80;1780626;80;21070;-67
2021/07/22 11:46:39;;;;;;;6.87;2.70;;;;;;;24.33;43.60;99153.32;1779807;80;20973;-67